sensor_id;sensor_type;location;lat;lon;timestamp;P1;durP1;ratioP1;P2;durP2;ratioP2
61085;SDS011;46967;48.876;2.136;2023-06-22T00:01:08;3.92;;;2.00;;
61085;SDS011;46967;48.876;2.136;2023-06-22T00:03:34;3.28;;;1.77;;
61085;SDS011;46967;48.876;2.136;2023-06-22T00:05:59;4.22;;;2.08;;
61085;SDS011;46967;48.876;2.136;2023-06-22T00:08:24;3.58;;;1.85;;
61085;SDS011;46967;48.876;2.136;2023-06-22T00:10:50;3.95;;;2.20;;
61085;SDS011;46967;48.876;2.136;2023-06-22T00:13:16;2.97;;;1.90;;
61085;SDS011;46967;48.876;2.136;2023-06-22T00:15:42;3.38;;;2.00;;
61085;SDS011;46967;48.876;2.136;2023-06-22T00:18:09;2.67;;;1.90;;
61085;SDS011;46967;48.876;2.136;2023-06-22T00:20:36;2.95;;;1.90;;
61085;SDS011;46967;48.876;2.136;2023-06-22T00:23:02;3.13;;;1.70;;
61085;SDS011;46967;48.876;2.136;2023-06-22T00:25:33;3.75;;;1.98;;
61085;SDS011;46967;48.876;2.136;2023-06-22T00:27:59;4.00;;;1.90;;
61085;SDS011;46967;48.876;2.136;2023-06-22T00:30:25;2.97;;;1.90;;
61085;SDS011;46967;48.876;2.136;2023-06-22T00:32:50;5.07;;;1.95;;
61085;SDS011;46967;48.876;2.136;2023-06-22T00:35:15;5.15;;;2.10;;
61085;SDS011;46967;48.876;2.136;2023-06-22T00:37:41;5.13;;;2.00;;
61085;SDS011;46967;48.876;2.136;2023-06-22T00:40:07;3.42;;;2.13;;
61085;SDS011;46967;48.876;2.136;2023-06-22T00:42:36;3.58;;;1.92;;
61085;SDS011;46967;48.876;2.136;2023-06-22T00:45:01;4.85;;;1.80;;
61085;SDS011;46967;48.876;2.136;2023-06-22T00:47:27;6.75;;;1.90;;
61085;SDS011;46967;48.876;2.136;2023-06-22T00:49:52;4.68;;;1.90;;
61085;SDS011;46967;48.876;2.136;2023-06-22T00:52:24;3.13;;;2.00;;
61085;SDS011;46967;48.876;2.136;2023-06-22T00:54:56;2.72;;;1.90;;
61085;SDS011;46967;48.876;2.136;2023-06-22T00:57:21;3.40;;;2.25;;
61085;SDS011;46967;48.876;2.136;2023-06-22T00:59:50;2.63;;;1.83;;
61085;SDS011;46967;48.876;2.136;2023-06-22T01:02:16;8.02;;;2.38;;
61085;SDS011;46967;48.876;2.136;2023-06-22T01:04:41;3.80;;;1.77;;
61085;SDS011;46967;48.876;2.136;2023-06-22T01:12:38;3.05;;;1.88;;
61085;SDS011;46967;48.876;2.136;2023-06-22T01:15:10;3.72;;;2.00;;
61085;SDS011;46967;48.876;2.136;2023-06-22T01:17:39;5.53;;;1.83;;
61085;SDS011;46967;48.876;2.136;2023-06-22T01:20:08;3.78;;;2.08;;
61085;SDS011;46967;48.876;2.136;2023-06-22T01:22:41;3.10;;;2.17;;
61085;SDS011;46967;48.876;2.136;2023-06-22T01:30:39;4.43;;;1.73;;
61085;SDS011;46967;48.876;2.136;2023-06-22T01:33:06;3.10;;;2.03;;
61085;SDS011;46967;48.876;2.136;2023-06-22T01:35:32;3.97;;;1.80;;
61085;SDS011;46967;48.876;2.136;2023-06-22T01:37:58;3.58;;;2.03;;
61085;SDS011;46967;48.876;2.136;2023-06-22T01:40:24;4.10;;;2.00;;
61085;SDS011;46967;48.876;2.136;2023-06-22T01:42:50;3.05;;;2.15;;
61085;SDS011;46967;48.876;2.136;2023-06-22T01:45:16;2.92;;;1.95;;
61085;SDS011;46967;48.876;2.136;2023-06-22T01:47:42;3.03;;;1.73;;
61085;SDS011;46967;48.876;2.136;2023-06-22T01:50:08;3.75;;;2.22;;
61085;SDS011;46967;48.876;2.136;2023-06-22T01:52:34;6.10;;;1.98;;
61085;SDS011;46967;48.876;2.136;2023-06-22T01:54:59;4.05;;;2.13;;
61085;SDS011;46967;48.876;2.136;2023-06-22T01:57:26;3.33;;;2.00;;
61085;SDS011;46967;48.876;2.136;2023-06-22T01:59:54;6.07;;;2.30;;
61085;SDS011;46967;48.876;2.136;2023-06-22T02:02:27;4.25;;;2.00;;
61085;SDS011;46967;48.876;2.136;2023-06-22T02:05:24;2.53;;;1.80;;
61085;SDS011;46967;48.876;2.136;2023-06-22T02:10:34;4.35;;;2.00;;
61085;SDS011;46967;48.876;2.136;2023-06-22T02:13:01;4.20;;;2.53;;
61085;SDS011;46967;48.876;2.136;2023-06-22T02:15:29;6.13;;;2.60;;
61085;SDS011;46967;48.876;2.136;2023-06-22T02:17:56;4.15;;;2.35;;
61085;SDS011;46967;48.876;2.136;2023-06-22T02:20:21;6.68;;;2.13;;
61085;SDS011;46967;48.876;2.136;2023-06-22T02:22:49;4.97;;;2.50;;
61085;SDS011;46967;48.876;2.136;2023-06-22T02:25:14;3.08;;;2.03;;
61085;SDS011;46967;48.876;2.136;2023-06-22T02:27:40;3.50;;;2.10;;
61085;SDS011;46967;48.876;2.136;2023-06-22T02:30:06;3.63;;;2.10;;
61085;SDS011;46967;48.876;2.136;2023-06-22T02:32:33;5.93;;;2.15;;
61085;SDS011;46967;48.876;2.136;2023-06-22T02:34:59;3.65;;;2.15;;
61085;SDS011;46967;48.876;2.136;2023-06-22T02:37:24;4.03;;;2.33;;
61085;SDS011;46967;48.876;2.136;2023-06-22T02:39:50;3.97;;;2.40;;
61085;SDS011;46967;48.876;2.136;2023-06-22T02:42:15;5.05;;;1.90;;
61085;SDS011;46967;48.876;2.136;2023-06-22T02:44:45;4.40;;;2.30;;
61085;SDS011;46967;48.876;2.136;2023-06-22T02:47:10;6.03;;;2.40;;
61085;SDS011;46967;48.876;2.136;2023-06-22T02:49:36;9.32;;;2.67;;
61085;SDS011;46967;48.876;2.136;2023-06-22T02:52:01;5.22;;;2.40;;
61085;SDS011;46967;48.876;2.136;2023-06-22T02:54:26;3.30;;;2.13;;
61085;SDS011;46967;48.876;2.136;2023-06-22T02:56:52;8.40;;;2.42;;
61085;SDS011;46967;48.876;2.136;2023-06-22T02:59:17;3.88;;;2.55;;
61085;SDS011;46967;48.876;2.136;2023-06-22T03:01:46;5.57;;;2.50;;
61085;SDS011;46967;48.876;2.136;2023-06-22T03:04:11;5.18;;;2.10;;
61085;SDS011;46967;48.876;2.136;2023-06-22T03:06:37;3.80;;;2.30;;
61085;SDS011;46967;48.876;2.136;2023-06-22T03:09:07;4.85;;;2.30;;
61085;SDS011;46967;48.876;2.136;2023-06-22T03:11:35;5.28;;;2.17;;
61085;SDS011;46967;48.876;2.136;2023-06-22T03:14:01;3.33;;;2.22;;
61085;SDS011;46967;48.876;2.136;2023-06-22T03:16:26;5.88;;;2.58;;
61085;SDS011;46967;48.876;2.136;2023-06-22T03:18:52;4.85;;;2.25;;
61085;SDS011;46967;48.876;2.136;2023-06-22T03:21:28;4.90;;;3.08;;
61085;SDS011;46967;48.876;2.136;2023-06-22T03:23:54;5.00;;;2.47;;
61085;SDS011;46967;48.876;2.136;2023-06-22T03:26:19;5.20;;;2.53;;
61085;SDS011;46967;48.876;2.136;2023-06-22T03:28:45;5.85;;;2.83;;
61085;SDS011;46967;48.876;2.136;2023-06-22T03:31:10;3.75;;;2.53;;
61085;SDS011;46967;48.876;2.136;2023-06-22T03:33:36;3.95;;;2.45;;
61085;SDS011;46967;48.876;2.136;2023-06-22T03:36:01;3.85;;;2.17;;
61085;SDS011;46967;48.876;2.136;2023-06-22T03:38:27;4.15;;;2.30;;
61085;SDS011;46967;48.876;2.136;2023-06-22T03:40:52;7.45;;;2.75;;
61085;SDS011;46967;48.876;2.136;2023-06-22T03:43:18;4.18;;;2.80;;
61085;SDS011;46967;48.876;2.136;2023-06-22T03:45:43;7.18;;;2.25;;
61085;SDS011;46967;48.876;2.136;2023-06-22T03:48:10;3.78;;;2.22;;
61085;SDS011;46967;48.876;2.136;2023-06-22T03:50:36;4.80;;;2.28;;
61085;SDS011;46967;48.876;2.136;2023-06-22T03:53:01;4.03;;;2.65;;
61085;SDS011;46967;48.876;2.136;2023-06-22T03:55:27;4.93;;;2.15;;
61085;SDS011;46967;48.876;2.136;2023-06-22T03:57:53;3.80;;;2.10;;
61085;SDS011;46967;48.876;2.136;2023-06-22T04:00:21;5.27;;;2.33;;
61085;SDS011;46967;48.876;2.136;2023-06-22T04:02:47;4.95;;;2.53;;
61085;SDS011;46967;48.876;2.136;2023-06-22T04:05:12;6.90;;;2.55;;
61085;SDS011;46967;48.876;2.136;2023-06-22T04:07:38;5.03;;;2.67;;
61085;SDS011;46967;48.876;2.136;2023-06-22T04:10:04;4.10;;;2.80;;
61085;SDS011;46967;48.876;2.136;2023-06-22T04:12:30;7.30;;;2.85;;
61085;SDS011;46967;48.876;2.136;2023-06-22T04:14:56;4.22;;;2.33;;
61085;SDS011;46967;48.876;2.136;2023-06-22T04:17:21;4.63;;;2.50;;
61085;SDS011;46967;48.876;2.136;2023-06-22T04:19:49;6.07;;;3.00;;
61085;SDS011;46967;48.876;2.136;2023-06-22T04:22:15;4.93;;;2.53;;
61085;SDS011;46967;48.876;2.136;2023-06-22T04:24:40;7.32;;;2.80;;
61085;SDS011;46967;48.876;2.136;2023-06-22T04:27:05;7.28;;;2.60;;
61085;SDS011;46967;48.876;2.136;2023-06-22T04:29:31;5.00;;;2.92;;
61085;SDS011;46967;48.876;2.136;2023-06-22T04:31:56;5.43;;;3.17;;
61085;SDS011;46967;48.876;2.136;2023-06-22T04:34:28;6.25;;;3.08;;
61085;SDS011;46967;48.876;2.136;2023-06-22T04:36:54;5.47;;;3.08;;
61085;SDS011;46967;48.876;2.136;2023-06-22T04:39:19;5.47;;;3.05;;
61085;SDS011;46967;48.876;2.136;2023-06-22T04:41:45;4.03;;;2.80;;
61085;SDS011;46967;48.876;2.136;2023-06-22T04:44:14;6.75;;;2.90;;
61085;SDS011;46967;48.876;2.136;2023-06-22T04:46:50;5.07;;;2.75;;
61085;SDS011;46967;48.876;2.136;2023-06-22T04:49:19;6.40;;;2.65;;
61085;SDS011;46967;48.876;2.136;2023-06-22T04:51:46;5.55;;;2.88;;
61085;SDS011;46967;48.876;2.136;2023-06-22T04:54:11;4.07;;;2.83;;
61085;SDS011;46967;48.876;2.136;2023-06-22T04:56:37;4.43;;;2.95;;
61085;SDS011;46967;48.876;2.136;2023-06-22T04:59:03;5.80;;;2.80;;
61085;SDS011;46967;48.876;2.136;2023-06-22T05:01:28;8.55;;;2.95;;
61085;SDS011;46967;48.876;2.136;2023-06-22T05:03:55;6.15;;;2.88;;
61085;SDS011;46967;48.876;2.136;2023-06-22T05:06:22;3.88;;;2.55;;
61085;SDS011;46967;48.876;2.136;2023-06-22T05:08:50;6.63;;;3.40;;
61085;SDS011;46967;48.876;2.136;2023-06-22T05:11:22;7.15;;;3.25;;
61085;SDS011;46967;48.876;2.136;2023-06-22T05:13:49;5.72;;;3.15;;
61085;SDS011;46967;48.876;2.136;2023-06-22T05:16:14;4.55;;;3.20;;
61085;SDS011;46967;48.876;2.136;2023-06-22T05:18:39;5.75;;;3.75;;
61085;SDS011;46967;48.876;2.136;2023-06-22T05:21:06;5.93;;;3.55;;
61085;SDS011;46967;48.876;2.136;2023-06-22T05:23:32;5.43;;;2.92;;
61085;SDS011;46967;48.876;2.136;2023-06-22T05:25:57;6.18;;;3.42;;
61085;SDS011;46967;48.876;2.136;2023-06-22T05:28:22;7.18;;;3.17;;
61085;SDS011;46967;48.876;2.136;2023-06-22T05:30:49;8.85;;;3.65;;
61085;SDS011;46967;48.876;2.136;2023-06-22T05:33:14;8.82;;;3.40;;
61085;SDS011;46967;48.876;2.136;2023-06-22T05:35:40;7.75;;;3.40;;
61085;SDS011;46967;48.876;2.136;2023-06-22T05:38:05;7.90;;;3.67;;
61085;SDS011;46967;48.876;2.136;2023-06-22T05:40:30;6.35;;;3.50;;
61085;SDS011;46967;48.876;2.136;2023-06-22T05:42:55;8.80;;;3.53;;
61085;SDS011;46967;48.876;2.136;2023-06-22T05:45:21;5.32;;;3.10;;
61085;SDS011;46967;48.876;2.136;2023-06-22T05:47:46;5.82;;;3.55;;
61085;SDS011;46967;48.876;2.136;2023-06-22T05:50:11;13.13;;;4.03;;
61085;SDS011;46967;48.876;2.136;2023-06-22T05:52:37;6.63;;;3.95;;
61085;SDS011;46967;48.876;2.136;2023-06-22T05:55:02;6.38;;;3.83;;
61085;SDS011;46967;48.876;2.136;2023-06-22T05:57:28;9.15;;;4.40;;
61085;SDS011;46967;48.876;2.136;2023-06-22T05:59:53;6.00;;;3.80;;
61085;SDS011;46967;48.876;2.136;2023-06-22T06:02:19;10.32;;;4.47;;
61085;SDS011;46967;48.876;2.136;2023-06-22T06:04:48;12.82;;;5.38;;
61085;SDS011;46967;48.876;2.136;2023-06-22T06:07:16;9.00;;;4.38;;
61085;SDS011;46967;48.876;2.136;2023-06-22T06:09:41;11.02;;;5.00;;
61085;SDS011;46967;48.876;2.136;2023-06-22T06:12:06;12.40;;;5.57;;
61085;SDS011;46967;48.876;2.136;2023-06-22T06:14:32;8.55;;;5.38;;
61085;SDS011;46967;48.876;2.136;2023-06-22T06:16:58;11.10;;;5.30;;
61085;SDS011;46967;48.876;2.136;2023-06-22T06:19:23;8.13;;;5.03;;
61085;SDS011;46967;48.876;2.136;2023-06-22T06:21:48;10.18;;;5.72;;
61085;SDS011;46967;48.876;2.136;2023-06-22T06:24:14;10.90;;;5.20;;
61085;SDS011;46967;48.876;2.136;2023-06-22T06:26:40;11.85;;;5.25;;
61085;SDS011;46967;48.876;2.136;2023-06-22T06:29:05;11.00;;;5.80;;
61085;SDS011;46967;48.876;2.136;2023-06-22T06:31:30;11.10;;;6.00;;
61085;SDS011;46967;48.876;2.136;2023-06-22T06:33:56;11.75;;;6.15;;
61085;SDS011;46967;48.876;2.136;2023-06-22T06:36:21;10.30;;;6.20;;
61085;SDS011;46967;48.876;2.136;2023-06-22T06:38:46;12.18;;;6.05;;
61085;SDS011;46967;48.876;2.136;2023-06-22T06:41:15;12.70;;;5.45;;
61085;SDS011;46967;48.876;2.136;2023-06-22T06:43:41;13.30;;;5.95;;
61085;SDS011;46967;48.876;2.136;2023-06-22T06:46:09;12.90;;;6.30;;
61085;SDS011;46967;48.876;2.136;2023-06-22T06:48:35;11.75;;;6.32;;
61085;SDS011;46967;48.876;2.136;2023-06-22T06:51:01;9.63;;;6.78;;
61085;SDS011;46967;48.876;2.136;2023-06-22T06:53:26;10.40;;;5.93;;
61085;SDS011;46967;48.876;2.136;2023-06-22T06:55:52;11.85;;;6.18;;
61085;SDS011;46967;48.876;2.136;2023-06-22T06:58:17;14.20;;;6.88;;
61085;SDS011;46967;48.876;2.136;2023-06-22T07:00:42;11.52;;;6.97;;
61085;SDS011;46967;48.876;2.136;2023-06-22T07:03:08;15.48;;;7.95;;
61085;SDS011;46967;48.876;2.136;2023-06-22T07:05:34;12.68;;;7.57;;
61085;SDS011;46967;48.876;2.136;2023-06-22T07:08:00;14.57;;;7.40;;
61085;SDS011;46967;48.876;2.136;2023-06-22T07:10:26;13.20;;;7.15;;
61085;SDS011;46967;48.876;2.136;2023-06-22T07:12:51;16.88;;;7.07;;
61085;SDS011;46967;48.876;2.136;2023-06-22T07:15:17;14.82;;;7.90;;
61085;SDS011;46967;48.876;2.136;2023-06-22T07:17:42;15.45;;;9.00;;
61085;SDS011;46967;48.876;2.136;2023-06-22T07:20:08;16.05;;;8.27;;
61085;SDS011;46967;48.876;2.136;2023-06-22T07:22:35;14.18;;;8.32;;
61085;SDS011;46967;48.876;2.136;2023-06-22T07:25:01;16.08;;;9.20;;
61085;SDS011;46967;48.876;2.136;2023-06-22T07:27:30;16.15;;;9.32;;
61085;SDS011;46967;48.876;2.136;2023-06-22T07:30:00;14.40;;;8.05;;
61085;SDS011;46967;48.876;2.136;2023-06-22T07:32:26;16.77;;;8.93;;
61085;SDS011;46967;48.876;2.136;2023-06-22T07:34:53;18.73;;;9.45;;
61085;SDS011;46967;48.876;2.136;2023-06-22T07:37:18;18.48;;;9.63;;
61085;SDS011;46967;48.876;2.136;2023-06-22T07:39:44;16.60;;;9.68;;
61085;SDS011;46967;48.876;2.136;2023-06-22T07:42:09;18.10;;;10.52;;
61085;SDS011;46967;48.876;2.136;2023-06-22T07:44:35;17.15;;;10.23;;
61085;SDS011;46967;48.876;2.136;2023-06-22T07:47:00;20.38;;;10.55;;
61085;SDS011;46967;48.876;2.136;2023-06-22T07:49:25;18.48;;;10.40;;
61085;SDS011;46967;48.876;2.136;2023-06-22T07:51:51;23.48;;;10.48;;
61085;SDS011;46967;48.876;2.136;2023-06-22T07:54:16;17.98;;;10.73;;
61085;SDS011;46967;48.876;2.136;2023-06-22T07:56:42;15.05;;;10.18;;
61085;SDS011;46967;48.876;2.136;2023-06-22T07:59:08;18.17;;;11.20;;
61085;SDS011;46967;48.876;2.136;2023-06-22T08:01:33;16.90;;;11.30;;
61085;SDS011;46967;48.876;2.136;2023-06-22T08:03:58;20.40;;;11.02;;
61085;SDS011;46967;48.876;2.136;2023-06-22T08:06:24;18.77;;;11.32;;
61085;SDS011;46967;48.876;2.136;2023-06-22T08:08:49;15.88;;;11.13;;
61085;SDS011;46967;48.876;2.136;2023-06-22T08:11:18;20.23;;;12.13;;
61085;SDS011;46967;48.876;2.136;2023-06-22T08:13:44;18.98;;;12.40;;
61085;SDS011;46967;48.876;2.136;2023-06-22T08:16:09;18.25;;;11.95;;
61085;SDS011;46967;48.876;2.136;2023-06-22T08:18:35;19.45;;;12.20;;
61085;SDS011;46967;48.876;2.136;2023-06-22T08:21:00;17.10;;;11.90;;
61085;SDS011;46967;48.876;2.136;2023-06-22T08:23:26;21.20;;;12.35;;
61085;SDS011;46967;48.876;2.136;2023-06-22T08:25:51;19.13;;;12.40;;
61085;SDS011;46967;48.876;2.136;2023-06-22T08:28:16;19.00;;;12.50;;
61085;SDS011;46967;48.876;2.136;2023-06-22T08:30:42;19.45;;;12.23;;
61085;SDS011;46967;48.876;2.136;2023-06-22T08:33:07;18.50;;;11.95;;
61085;SDS011;46967;48.876;2.136;2023-06-22T08:35:32;21.88;;;12.05;;
61085;SDS011;46967;48.876;2.136;2023-06-22T08:37:58;24.15;;;12.23;;
61085;SDS011;46967;48.876;2.136;2023-06-22T08:40:24;19.92;;;12.20;;
61085;SDS011;46967;48.876;2.136;2023-06-22T08:42:50;21.58;;;12.30;;
61085;SDS011;46967;48.876;2.136;2023-06-22T08:45:16;19.25;;;12.10;;
61085;SDS011;46967;48.876;2.136;2023-06-22T08:47:41;18.98;;;11.93;;
61085;SDS011;46967;48.876;2.136;2023-06-22T08:50:08;20.08;;;12.50;;
61085;SDS011;46967;48.876;2.136;2023-06-22T08:52:34;20.17;;;12.35;;
61085;SDS011;46967;48.876;2.136;2023-06-22T08:55:00;18.63;;;11.90;;
61085;SDS011;46967;48.876;2.136;2023-06-22T08:57:25;22.83;;;11.82;;
61085;SDS011;46967;48.876;2.136;2023-06-22T08:59:51;32.15;;;12.00;;
61085;SDS011;46967;48.876;2.136;2023-06-22T09:02:18;21.10;;;11.38;;
61085;SDS011;46967;48.876;2.136;2023-06-22T09:04:44;20.27;;;11.85;;
61085;SDS011;46967;48.876;2.136;2023-06-22T09:07:10;18.15;;;11.70;;
61085;SDS011;46967;48.876;2.136;2023-06-22T09:09:36;18.83;;;11.65;;
61085;SDS011;46967;48.876;2.136;2023-06-22T09:12:02;20.92;;;11.55;;
61085;SDS011;46967;48.876;2.136;2023-06-22T09:14:27;18.88;;;11.18;;
61085;SDS011;46967;48.876;2.136;2023-06-22T09:16:53;15.85;;;10.98;;
61085;SDS011;46967;48.876;2.136;2023-06-22T09:19:18;16.35;;;10.50;;
61085;SDS011;46967;48.876;2.136;2023-06-22T09:21:43;20.92;;;11.45;;
61085;SDS011;46967;48.876;2.136;2023-06-22T09:24:09;18.42;;;10.48;;
61085;SDS011;46967;48.876;2.136;2023-06-22T09:26:34;16.50;;;9.75;;
61085;SDS011;46967;48.876;2.136;2023-06-22T09:29:00;14.55;;;9.40;;
61085;SDS011;46967;48.876;2.136;2023-06-22T09:31:25;22.45;;;11.55;;
61085;SDS011;46967;48.876;2.136;2023-06-22T09:33:53;15.68;;;9.15;;
61085;SDS011;46967;48.876;2.136;2023-06-22T09:36:20;16.70;;;9.10;;
61085;SDS011;46967;48.876;2.136;2023-06-22T09:38:46;15.10;;;9.15;;
61085;SDS011;46967;48.876;2.136;2023-06-22T09:41:12;13.48;;;8.60;;
61085;SDS011;46967;48.876;2.136;2023-06-22T09:43:37;16.70;;;9.00;;
61085;SDS011;46967;48.876;2.136;2023-06-22T09:46:03;14.52;;;7.72;;
61085;SDS011;46967;48.876;2.136;2023-06-22T09:48:28;12.90;;;8.27;;
61085;SDS011;46967;48.876;2.136;2023-06-22T09:50:55;14.20;;;8.73;;
61085;SDS011;46967;48.876;2.136;2023-06-22T09:53:20;11.23;;;8.23;;
61085;SDS011;46967;48.876;2.136;2023-06-22T09:55:46;15.43;;;8.18;;
61085;SDS011;46967;48.876;2.136;2023-06-22T09:58:12;14.27;;;8.10;;
61085;SDS011;46967;48.876;2.136;2023-06-22T10:00:37;15.18;;;8.45;;
61085;SDS011;46967;48.876;2.136;2023-06-22T10:03:02;13.75;;;8.77;;
61085;SDS011;46967;48.876;2.136;2023-06-22T10:05:28;16.00;;;8.85;;
61085;SDS011;46967;48.876;2.136;2023-06-22T10:07:53;15.30;;;9.00;;
61085;SDS011;46967;48.876;2.136;2023-06-22T10:10:18;13.98;;;8.02;;
61085;SDS011;46967;48.876;2.136;2023-06-22T10:12:45;14.30;;;8.68;;
61085;SDS011;46967;48.876;2.136;2023-06-22T10:15:12;14.90;;;8.18;;
61085;SDS011;46967;48.876;2.136;2023-06-22T10:17:38;14.70;;;8.70;;
61085;SDS011;46967;48.876;2.136;2023-06-22T10:20:04;13.18;;;9.25;;
61085;SDS011;46967;48.876;2.136;2023-06-22T10:22:46;13.75;;;8.15;;
61085;SDS011;46967;48.876;2.136;2023-06-22T10:25:12;16.10;;;8.20;;
61085;SDS011;46967;48.876;2.136;2023-06-22T10:27:38;12.63;;;8.40;;
61085;SDS011;46967;48.876;2.136;2023-06-22T10:30:10;12.57;;;8.63;;
61085;SDS011;46967;48.876;2.136;2023-06-22T10:32:40;14.93;;;9.27;;
61085;SDS011;46967;48.876;2.136;2023-06-22T10:35:07;12.50;;;8.57;;
61085;SDS011;46967;48.876;2.136;2023-06-22T10:37:33;13.80;;;8.65;;
61085;SDS011;46967;48.876;2.136;2023-06-22T10:39:59;11.32;;;7.53;;
61085;SDS011;46967;48.876;2.136;2023-06-22T10:42:24;16.23;;;9.07;;
61085;SDS011;46967;48.876;2.136;2023-06-22T10:44:49;17.30;;;8.40;;
61085;SDS011;46967;48.876;2.136;2023-06-22T10:47:15;13.43;;;8.30;;
61085;SDS011;46967;48.876;2.136;2023-06-22T10:49:40;14.43;;;8.52;;
61085;SDS011;46967;48.876;2.136;2023-06-22T10:52:06;12.85;;;8.25;;
61085;SDS011;46967;48.876;2.136;2023-06-22T10:54:33;14.10;;;8.88;;
61085;SDS011;46967;48.876;2.136;2023-06-22T10:56:59;12.23;;;8.25;;
61085;SDS011;46967;48.876;2.136;2023-06-22T10:59:25;11.40;;;7.88;;
61085;SDS011;46967;48.876;2.136;2023-06-22T11:01:51;15.13;;;9.25;;
61085;SDS011;46967;48.876;2.136;2023-06-22T11:04:16;13.43;;;8.48;;
61085;SDS011;46967;48.876;2.136;2023-06-22T11:06:42;10.32;;;7.70;;
61085;SDS011;46967;48.876;2.136;2023-06-22T11:09:08;10.70;;;7.43;;
61085;SDS011;46967;48.876;2.136;2023-06-22T11:11:34;10.10;;;7.10;;
61085;SDS011;46967;48.876;2.136;2023-06-22T11:13:59;11.90;;;7.50;;
61085;SDS011;46967;48.876;2.136;2023-06-22T11:16:24;8.98;;;6.80;;
61085;SDS011;46967;48.876;2.136;2023-06-22T11:18:50;12.93;;;7.40;;
61085;SDS011;46967;48.876;2.136;2023-06-22T11:21:15;11.10;;;7.07;;
61085;SDS011;46967;48.876;2.136;2023-06-22T11:23:41;12.68;;;7.28;;
61085;SDS011;46967;48.876;2.136;2023-06-22T11:26:07;11.98;;;7.90;;
61085;SDS011;46967;48.876;2.136;2023-06-22T11:28:33;10.38;;;7.22;;
61085;SDS011;46967;48.876;2.136;2023-06-22T11:30:58;12.43;;;7.05;;
61085;SDS011;46967;48.876;2.136;2023-06-22T11:33:23;11.95;;;7.18;;
61085;SDS011;46967;48.876;2.136;2023-06-22T11:35:49;13.38;;;7.75;;
61085;SDS011;46967;48.876;2.136;2023-06-22T11:38:14;11.45;;;7.53;;
61085;SDS011;46967;48.876;2.136;2023-06-22T11:40:40;12.32;;;7.35;;
61085;SDS011;46967;48.876;2.136;2023-06-22T11:43:05;18.20;;;6.38;;
61085;SDS011;46967;48.876;2.136;2023-06-22T11:45:31;12.30;;;7.45;;
61085;SDS011;46967;48.876;2.136;2023-06-22T11:47:56;9.77;;;6.88;;
61085;SDS011;46967;48.876;2.136;2023-06-22T11:50:21;10.70;;;6.10;;
61085;SDS011;46967;48.876;2.136;2023-06-22T11:52:47;10.95;;;5.75;;
61085;SDS011;46967;48.876;2.136;2023-06-22T11:55:12;11.35;;;5.28;;
61085;SDS011;46967;48.876;2.136;2023-06-22T11:57:38;8.07;;;5.80;;
61085;SDS011;46967;48.876;2.136;2023-06-22T12:00:18;11.27;;;6.10;;
61085;SDS011;46967;48.876;2.136;2023-06-22T12:02:44;10.65;;;5.93;;
61085;SDS011;46967;48.876;2.136;2023-06-22T12:05:12;8.05;;;5.50;;
61085;SDS011;46967;48.876;2.136;2023-06-22T12:07:37;11.98;;;5.53;;
61085;SDS011;46967;48.876;2.136;2023-06-22T12:10:03;7.57;;;4.85;;
61085;SDS011;46967;48.876;2.136;2023-06-22T12:12:28;8.77;;;5.22;;
61085;SDS011;46967;48.876;2.136;2023-06-22T12:14:54;7.18;;;5.50;;
61085;SDS011;46967;48.876;2.136;2023-06-22T12:17:19;8.48;;;5.53;;
61085;SDS011;46967;48.876;2.136;2023-06-22T12:19:44;9.40;;;5.05;;
61085;SDS011;46967;48.876;2.136;2023-06-22T12:22:10;7.18;;;4.75;;
61085;SDS011;46967;48.876;2.136;2023-06-22T12:24:35;9.07;;;5.05;;
61085;SDS011;46967;48.876;2.136;2023-06-22T12:27:00;8.30;;;5.20;;
61085;SDS011;46967;48.876;2.136;2023-06-22T12:29:28;12.60;;;5.53;;
61085;SDS011;46967;48.876;2.136;2023-06-22T12:31:53;8.55;;;5.20;;
61085;SDS011;46967;48.876;2.136;2023-06-22T12:34:19;9.57;;;6.05;;
61085;SDS011;46967;48.876;2.136;2023-06-22T12:36:44;8.10;;;4.90;;
61085;SDS011;46967;48.876;2.136;2023-06-22T12:39:09;8.25;;;5.15;;
61085;SDS011;46967;48.876;2.136;2023-06-22T12:41:34;7.78;;;5.40;;
61085;SDS011;46967;48.876;2.136;2023-06-22T12:44:00;8.00;;;5.70;;
61085;SDS011;46967;48.876;2.136;2023-06-22T12:46:25;8.77;;;5.18;;
61085;SDS011;46967;48.876;2.136;2023-06-22T12:48:51;10.20;;;6.13;;
61085;SDS011;46967;48.876;2.136;2023-06-22T12:51:22;6.95;;;5.15;;
61085;SDS011;46967;48.876;2.136;2023-06-22T12:53:47;13.35;;;6.57;;
61085;SDS011;46967;48.876;2.136;2023-06-22T12:56:13;10.80;;;6.28;;
61085;SDS011;46967;48.876;2.136;2023-06-22T12:58:38;14.57;;;5.82;;
61085;SDS011;46967;48.876;2.136;2023-06-22T13:01:03;12.23;;;7.10;;
61085;SDS011;46967;48.876;2.136;2023-06-22T13:03:29;9.35;;;5.90;;
61085;SDS011;46967;48.876;2.136;2023-06-22T13:05:54;10.73;;;6.53;;
61085;SDS011;46967;48.876;2.136;2023-06-22T13:08:20;12.00;;;6.05;;
61085;SDS011;46967;48.876;2.136;2023-06-22T13:10:45;9.10;;;6.50;;
61085;SDS011;46967;48.876;2.136;2023-06-22T13:13:11;8.40;;;6.43;;
61085;SDS011;46967;48.876;2.136;2023-06-22T13:15:36;9.60;;;5.88;;
61085;SDS011;46967;48.876;2.136;2023-06-22T13:18:01;10.35;;;6.35;;
61085;SDS011;46967;48.876;2.136;2023-06-22T13:20:28;11.98;;;5.63;;
61085;SDS011;46967;48.876;2.136;2023-06-22T13:22:54;8.85;;;5.97;;
61085;SDS011;46967;48.876;2.136;2023-06-22T13:25:20;9.32;;;6.10;;
61085;SDS011;46967;48.876;2.136;2023-06-22T13:27:48;10.65;;;6.03;;
61085;SDS011;46967;48.876;2.136;2023-06-22T13:30:13;10.10;;;5.90;;
61085;SDS011;46967;48.876;2.136;2023-06-22T13:32:39;9.00;;;5.93;;
61085;SDS011;46967;48.876;2.136;2023-06-22T13:35:07;8.27;;;5.68;;
61085;SDS011;46967;48.876;2.136;2023-06-22T13:37:36;10.57;;;5.50;;
61085;SDS011;46967;48.876;2.136;2023-06-22T13:40:02;11.82;;;5.72;;
61085;SDS011;46967;48.876;2.136;2023-06-22T13:42:30;10.15;;;5.05;;
61085;SDS011;46967;48.876;2.136;2023-06-22T13:44:55;10.98;;;5.75;;
61085;SDS011;46967;48.876;2.136;2023-06-22T13:47:21;12.38;;;5.65;;
61085;SDS011;46967;48.876;2.136;2023-06-22T13:49:46;10.27;;;5.35;;
61085;SDS011;46967;48.876;2.136;2023-06-22T13:52:11;12.23;;;4.57;;
61085;SDS011;46967;48.876;2.136;2023-06-22T13:54:37;8.13;;;4.18;;
61085;SDS011;46967;48.876;2.136;2023-06-22T13:57:03;7.60;;;3.92;;
61085;SDS011;46967;48.876;2.136;2023-06-22T13:59:29;6.72;;;4.13;;
61085;SDS011;46967;48.876;2.136;2023-06-22T14:01:54;7.40;;;3.95;;
61085;SDS011;46967;48.876;2.136;2023-06-22T14:04:19;6.72;;;3.42;;
61085;SDS011;46967;48.876;2.136;2023-06-22T14:06:46;6.47;;;3.40;;
61085;SDS011;46967;48.876;2.136;2023-06-22T14:09:11;5.65;;;3.40;;
61085;SDS011;46967;48.876;2.136;2023-06-22T14:11:37;7.05;;;3.47;;
61085;SDS011;46967;48.876;2.136;2023-06-22T14:14:02;7.03;;;2.97;;
61085;SDS011;46967;48.876;2.136;2023-06-22T14:16:28;6.18;;;3.22;;
61085;SDS011;46967;48.876;2.136;2023-06-22T14:18:53;5.20;;;2.75;;
61085;SDS011;46967;48.876;2.136;2023-06-22T14:21:19;4.78;;;2.72;;
61085;SDS011;46967;48.876;2.136;2023-06-22T14:23:44;5.18;;;2.92;;
61085;SDS011;46967;48.876;2.136;2023-06-22T14:26:14;6.95;;;3.15;;
61085;SDS011;46967;48.876;2.136;2023-06-22T14:28:43;13.97;;;3.30;;
61085;SDS011;46967;48.876;2.136;2023-06-22T14:31:16;12.95;;;3.25;;
61085;SDS011;46967;48.876;2.136;2023-06-22T14:33:44;7.82;;;3.05;;
61085;SDS011;46967;48.876;2.136;2023-06-22T14:36:11;6.72;;;2.83;;
61085;SDS011;46967;48.876;2.136;2023-06-22T14:38:37;5.85;;;3.05;;
61085;SDS011;46967;48.876;2.136;2023-06-22T14:41:02;7.47;;;2.78;;
61085;SDS011;46967;48.876;2.136;2023-06-22T14:43:27;5.47;;;2.83;;
61085;SDS011;46967;48.876;2.136;2023-06-22T14:45:53;5.65;;;2.95;;
61085;SDS011;46967;48.876;2.136;2023-06-22T14:48:18;6.57;;;2.88;;